Météo aviation pour un terrain ou une ville
Choisir un ou une

Vous pouvez entrer RAPIDEMENT les premières lettres pour sélectionner

Aéroport choisi : LFCK - CASTRES - MAZAMET
Visibilité




Soleil : Lever à 08:10 Coucher à 19:01
Durée du jour : 10h 51 (-2 minute(s))
Date et heure locale 17/10/2021 03:13
Il fait nuit
Distance Terre - Lune : 388172 kms

Phase actuelle: Gibeuse montante
Température
Pression
Humidité
Force du vent
Direction du vent
Temps présent
Ciel Clair

Ensoleillement : 100 %
Heure d'observation : 2021/10/17 03:00. Soit il y a 0 H 13 mn
Décodage METAR, TAF et désign par Philippe Guiraud
METAR : 2021/10/17 01:00 LFCK 170100Z AUTO 15006KT CAVOK 10/08 Q1018
Prévisions (décodage des TAF)
Pas de prévisions (TAF) pour cette station
Historique pour les derniéres 24 heures
Carte satellite actuelle
Satellite Image